PWSweather.com
Personal Weather Stations
Station Observations
EDDERTON
Rossshire, EddertonGB IV191LA

RossshireEddertonGB IV191LA

Lat: 57.838, Lon: -4.176

Elevation: 60

Station Type: Davis Vantage PRO2 Wireless With Solar Sensor

http://www.ardmore-lodge.com

Latest ConditionsUpdated 11:15:01 PM GMT Monday, Dec 22, 2014
Currently Today's Max Today's Min Today's Average
Temperature 43.5°F6.4°C 48.2°F9.0°C 42.2°F5.7°C 44.4°F6.9°C
Dew Point 37.7°F3.2°C 39.8°F4.3°C 36.7°F2.6°C 38.3°F3.5°C
Winds 15.0 mph W24.1 kmh W 19.6 mph W31.5 kmh W - 10.8 mph 17.4 kmh
Wind Gusts 19.6 mph31.5 kmh 28.8 mph46.3 kmh - -
Humidity 80% 85% 65% 79%
Pressure 29.47 in998.0 mb 29.47 in998.0 mb 29.39 in995.3 mb -
Precipitation - 0.03 in0.8 mm - -
Hour Temp Dew Point Humidity Winds Wind Gusts Pressure Precip Precip Rate Daily Precip Total
11:15 PM 43.5°F6.4°C 37.7°F3.2°C 80% 15.0 mph W24.1 kmh W 19.6 mph31.5 kmh 29.47 in998.0 mb 0.00 in0.0 mm 0.00 in/hr0.0 mm/hr 0.03 in0.8 mm
11:00 PM 43.5°F6.4°C 37.4°F3.0°C 79% 5.8 mph W9.3 kmh W 11.5 mph18.5 kmh 29.46 in997.6 mb 0.00 in0.0 mm 0.00 in/hr0.0 mm/hr 0.03 in0.8 mm
10:45 PM 43.3°F6.3°C 37.5°F3.1°C 80% 9.2 mph WSW14.8 kmh WSW 15.0 mph24.1 kmh 29.46 in997.6 mb 0.00 in0.0 mm 0.00 in/hr0.0 mm/hr 0.03 in0.8 mm
10:30 PM 43.3°F6.3°C 37.2°F2.9°C 79% 9.2 mph WSW14.8 kmh WSW 15.0 mph24.1 kmh 29.46 in997.6 mb 0.00 in0.0 mm 0.00 in/hr0.0 mm/hr 0.03 in0.8 mm
10:15 PM 43.3°F6.3°C 37.5°F3.1°C 80% 9.2 mph WSW14.8 kmh WSW 17.3 mph27.8 kmh 29.45 in997.3 mb 0.00 in0.0 mm 0.00 in/hr0.0 mm/hr 0.03 in0.8 mm
10:00 PM 42.5°F5.8°C 37.7°F3.2°C 83% 8.1 mph WSW13.0 kmh WSW 12.7 mph20.4 kmh 29.46 in997.6 mb 0.00 in0.0 mm 0.00 in/hr0.0 mm/hr 0.03 in0.8 mm
09:45 PM 43.2°F6.2°C 37.8°F3.2°C 81% 6.9 mph WSW11.1 kmh WSW 10.4 mph16.7 kmh 29.47 in998.0 mb 0.00 in0.0 mm 0.00 in/hr0.0 mm/hr 0.03 in0.8 mm
09:30 PM 43.9°F6.6°C 38.1°F3.4°C 80% 16.1 mph W25.9 kmh W 18.4 mph29.6 kmh 29.46 in997.6 mb 0.00 in0.0 mm 0.00 in/hr0.0 mm/hr 0.03 in0.8 mm
09:15 PM 43.9°F6.6°C 38.1°F3.4°C 80% 13.8 mph W22.2 kmh W 18.4 mph29.6 kmh 29.46 in997.6 mb 0.00 in0.0 mm 0.00 in/hr0.0 mm/hr 0.03 in0.8 mm
09:00 PM 43.9°F6.6°C 38.4°F3.6°C 81% 17.3 mph WSW27.8 kmh WSW 23.0 mph37.0 kmh 29.46 in997.6 mb 0.00 in0.0 mm 0.00 in/hr0.0 mm/hr 0.03 in0.8 mm
08:45 PM 43.2°F6.2°C 38.1°F3.4°C 82% 10.4 mph WSW16.7 kmh WSW 15.0 mph24.1 kmh 29.46 in997.6 mb 0.00 in0.0 mm 0.00 in/hr0.0 mm/hr 0.03 in0.8 mm
08:30 PM 43.0°F6.1°C 38.2°F3.4°C 83% 8.1 mph W13.0 kmh W 11.5 mph18.5 kmh 29.46 in997.6 mb 0.00 in0.0 mm 0.00 in/hr0.0 mm/hr 0.03 in0.8 mm
08:15 PM 43.3°F6.3°C 38.5°F3.6°C 83% 9.2 mph WSW14.8 kmh WSW 11.5 mph18.5 kmh 29.46 in997.6 mb 0.00 in0.0 mm 0.00 in/hr0.0 mm/hr 0.03 in0.8 mm
08:00 PM 43.1°F6.2°C 38.6°F3.7°C 84% 12.7 mph W20.4 kmh W 20.7 mph33.3 kmh 29.46 in997.6 mb 0.00 in0.0 mm 0.00 in/hr0.0 mm/hr 0.03 in0.8 mm
07:45 PM 42.4°F5.8°C 38.2°F3.4°C 85% 10.4 mph WSW16.7 kmh WSW 16.1 mph25.9 kmh 29.46 in997.6 mb 0.00 in0.0 mm 0.00 in/hr0.0 mm/hr 0.03 in0.8 mm
07:30 PM 42.9°F6.1°C 38.4°F3.6°C 84% 9.2 mph WSW14.8 kmh WSW 12.7 mph20.4 kmh 29.47 in998.0 mb 0.01 in0.3 mm 0.04 in/hr1.0 mm/hr 0.03 in0.8 mm
07:15 PM 43.3°F6.3°C 37.5°F3.1°C 80% 8.1 mph WSW13.0 kmh WSW 11.5 mph18.5 kmh 29.47 in998.0 mb 0.00 in0.0 mm 0.00 in/hr0.0 mm/hr 0.02 in0.5 mm
07:00 PM 43.0°F6.1°C 37.9°F3.3°C 82% 6.9 mph WSW11.1 kmh WSW 10.4 mph16.7 kmh 29.46 in997.6 mb 0.00 in0.0 mm 0.00 in/hr0.0 mm/hr 0.02 in0.5 mm
06:45 PM 43.0°F6.1°C 37.9°F3.3°C 82% 4.6 mph WSW7.4 kmh WSW 12.7 mph20.4 kmh 29.47 in998.0 mb 0.00 in0.0 mm 0.00 in/hr0.0 mm/hr 0.02 in0.5 mm
06:30 PM 42.2°F5.7°C 37.7°F3.2°C 84% 9.2 mph WSW14.8 kmh WSW 11.5 mph18.5 kmh 29.47 in998.0 mb 0.00 in0.0 mm 0.00 in/hr0.0 mm/hr 0.02 in0.5 mm
06:15 PM 42.6°F5.9°C 37.2°F2.9°C 81% 3.5 mph SW5.6 kmh SW 4.6 mph7.4 kmh 29.47 in998.0 mb 0.00 in0.0 mm 0.00 in/hr0.0 mm/hr 0.02 in0.5 mm
06:00 PM 43.2°F6.2°C 37.4°F3.0°C 80% 8.1 mph WSW13.0 kmh WSW 15.0 mph24.1 kmh 29.47 in998.0 mb 0.00 in0.0 mm 0.00 in/hr0.0 mm/hr 0.02 in0.5 mm
05:45 PM 43.0°F6.1°C 37.9°F3.3°C 82% 8.1 mph WSW13.0 kmh WSW 15.0 mph24.1 kmh 29.45 in997.3 mb 0.00 in0.0 mm 0.00 in/hr0.0 mm/hr 0.02 in0.5 mm
05:30 PM 42.6°F5.9°C 37.8°F3.2°C 83% 10.4 mph WSW16.7 kmh WSW 12.7 mph20.4 kmh 29.46 in997.6 mb 0.00 in0.0 mm 0.00 in/hr0.0 mm/hr 0.02 in0.5 mm
05:15 PM 42.8°F6.0°C 37.7°F3.2°C 82% 10.4 mph WSW16.7 kmh WSW 13.8 mph22.2 kmh 29.47 in998.0 mb 0.00 in0.0 mm 0.00 in/hr0.0 mm/hr 0.02 in0.5 mm
05:00 PM 43.3°F6.3°C 37.8°F3.2°C 81% 10.4 mph W16.7 kmh W 13.8 mph22.2 kmh 29.47 in998.0 mb 0.00 in0.0 mm 0.00 in/hr0.0 mm/hr 0.02 in0.5 mm
04:45 PM 44.1°F6.7°C 38.3°F3.5°C 80% 16.1 mph W25.9 kmh W 20.7 mph33.3 kmh 29.46 in997.6 mb 0.00 in0.0 mm 0.00 in/hr0.0 mm/hr 0.02 in0.5 mm
04:30 PM 43.4°F6.3°C 36.7°F2.6°C 77% 10.4 mph W16.7 kmh W 15.0 mph24.1 kmh 29.46 in997.6 mb 0.00 in0.0 mm 0.00 in/hr0.0 mm/hr 0.02 in0.5 mm
04:15 PM 43.4°F6.3°C 38.0°F3.3°C 81% 8.1 mph W13.0 kmh W 10.4 mph16.7 kmh 29.46 in997.6 mb 0.00 in0.0 mm 0.00 in/hr0.0 mm/hr 0.02 in0.5 mm
04:00 PM 44.3°F6.8°C 38.8°F3.8°C 81% 16.1 mph W25.9 kmh W 23.0 mph37.0 kmh 29.47 in998.0 mb 0.00 in0.0 mm 0.00 in/hr0.0 mm/hr 0.02 in0.5 mm
03:45 PM 44.1°F6.7°C 37.7°F3.2°C 78% 13.8 mph W22.2 kmh W 18.4 mph29.6 kmh 29.46 in997.6 mb 0.00 in0.0 mm 0.00 in/hr0.0 mm/hr 0.02 in0.5 mm
03:30 PM 43.5°F6.4°C 38.1°F3.4°C 81% 10.4 mph W16.7 kmh W 12.7 mph20.4 kmh 29.45 in997.3 mb 0.00 in0.0 mm 0.00 in/hr0.0 mm/hr 0.02 in0.5 mm
03:15 PM 44.7°F7.1°C 38.3°F3.5°C 78% 18.4 mph W29.6 kmh W 28.8 mph46.3 kmh 29.45 in997.3 mb 0.00 in0.0 mm 0.00 in/hr0.0 mm/hr 0.02 in0.5 mm
03:00 PM 44.1°F6.7°C 38.0°F3.3°C 79% 15.0 mph W24.1 kmh W 19.6 mph31.5 kmh 29.44 in997.0 mb 0.00 in0.0 mm 0.00 in/hr0.0 mm/hr 0.02 in0.5 mm
02:45 PM 44.3°F6.8°C 38.2°F3.4°C 79% 17.3 mph W27.8 kmh W 24.2 mph38.9 kmh 29.45 in997.3 mb 0.00 in0.0 mm 0.00 in/hr0.0 mm/hr 0.02 in0.5 mm
02:30 PM 44.1°F6.7°C 38.3°F3.5°C 80% 13.8 mph W22.2 kmh W 18.4 mph29.6 kmh 29.45 in997.3 mb 0.00 in0.0 mm 0.00 in/hr0.0 mm/hr 0.02 in0.5 mm
02:15 PM 44.6°F7.0°C 38.5°F3.6°C 79% 10.4 mph W16.7 kmh W 18.4 mph29.6 kmh 29.45 in997.3 mb 0.00 in0.0 mm 0.00 in/hr0.0 mm/hr 0.02 in0.5 mm
02:00 PM 45.2°F7.3°C 38.1°F3.4°C 76% 18.4 mph W29.6 kmh W 24.2 mph38.9 kmh 29.45 in997.3 mb 0.00 in0.0 mm 0.00 in/hr0.0 mm/hr 0.02 in0.5 mm
01:45 PM 44.4°F6.9°C 38.6°F3.7°C 80% 11.5 mph WSW18.5 kmh WSW 20.7 mph33.3 kmh 29.45 in997.3 mb 0.00 in0.0 mm 0.00 in/hr0.0 mm/hr 0.02 in0.5 mm
01:30 PM 45.2°F7.3°C 39.1°F3.9°C 79% 11.5 mph W18.5 kmh W 15.0 mph24.1 kmh 29.46 in997.6 mb 0.00 in0.0 mm 0.00 in/hr0.0 mm/hr 0.02 in0.5 mm
01:15 PM 45.7°F7.6°C 38.2°F3.4°C 75% 16.1 mph W25.9 kmh W 20.7 mph33.3 kmh 29.45 in997.3 mb 0.00 in0.0 mm 0.00 in/hr0.0 mm/hr 0.02 in0.5 mm
01:00 PM 45.5°F7.5°C 38.0°F3.3°C 75% 6.9 mph W11.1 kmh W 6.9 mph11.1 kmh 29.44 in997.0 mb 0.00 in0.0 mm 0.00 in/hr0.0 mm/hr 0.02 in0.5 mm
12:45 PM 45.3°F7.4°C 37.8°F3.2°C 75% 8.1 mph WSW13.0 kmh WSW 13.8 mph22.2 kmh 29.44 in997.0 mb 0.00 in0.0 mm 0.00 in/hr0.0 mm/hr 0.02 in0.5 mm
12:30 PM 45.0°F7.2°C 38.2°F3.4°C 77% 13.8 mph W22.2 kmh W 18.4 mph29.6 kmh 29.44 in997.0 mb 0.00 in0.0 mm 0.00 in/hr0.0 mm/hr 0.02 in0.5 mm
12:15 PM 44.5°F6.9°C 37.4°F3.0°C 76% 10.4 mph W16.7 kmh W 17.3 mph27.8 kmh 29.44 in997.0 mb 0.00 in0.0 mm 0.00 in/hr0.0 mm/hr 0.02 in0.5 mm
12:00 PM 44.6°F7.0°C 38.5°F3.6°C 79% 10.4 mph W16.7 kmh W 13.8 mph22.2 kmh 29.45 in997.3 mb 0.00 in0.0 mm 0.00 in/hr0.0 mm/hr 0.02 in0.5 mm
11:45 AM 44.4°F6.9°C 38.6°F3.7°C 80% 8.1 mph WSW13.0 kmh WSW 11.5 mph18.5 kmh 29.45 in997.3 mb 0.00 in0.0 mm 0.00 in/hr0.0 mm/hr 0.02 in0.5 mm
11:30 AM 44.8°F7.1°C 38.4°F3.6°C 78% 11.5 mph W18.5 kmh W 16.1 mph25.9 kmh 29.45 in997.3 mb 0.00 in0.0 mm 0.00 in/hr0.0 mm/hr 0.02 in0.5 mm
11:15 AM 44.6°F7.0°C 37.5°F3.1°C 76% 12.7 mph W20.4 kmh W 17.3 mph27.8 kmh 29.45 in997.3 mb 0.00 in0.0 mm 0.00 in/hr0.0 mm/hr 0.02 in0.5 mm
11:00 AM 44.1°F6.7°C 37.6°F3.1°C 78% 11.5 mph WSW18.5 kmh WSW 12.7 mph20.4 kmh 29.45 in997.3 mb 0.00 in0.0 mm 0.00 in/hr0.0 mm/hr 0.02 in0.5 mm
10:45 AM 44.1°F6.7°C 38.0°F3.3°C 79% 15.0 mph WSW24.1 kmh WSW 24.2 mph38.9 kmh 29.44 in997.0 mb 0.00 in0.0 mm 0.00 in/hr0.0 mm/hr 0.02 in0.5 mm
10:30 AM 44.4°F6.9°C 37.0°F2.8°C 75% 12.7 mph W20.4 kmh W 18.4 mph29.6 kmh 29.44 in997.0 mb 0.00 in0.0 mm 0.00 in/hr0.0 mm/hr 0.02 in0.5 mm
10:15 AM 43.3°F6.3°C 37.3°F2.9°C 79% 5.8 mph W9.3 kmh W 5.8 mph9.3 kmh 29.43 in996.6 mb 0.00 in0.0 mm 0.00 in/hr0.0 mm/hr 0.02 in0.5 mm
10:00 AM 43.7°F6.5°C 38.0°F3.3°C 80% 10.4 mph WSW16.7 kmh WSW 11.5 mph18.5 kmh 29.44 in997.0 mb 0.00 in0.0 mm 0.00 in/hr0.0 mm/hr 0.02 in0.5 mm
09:45 AM 43.6°F6.4°C 37.2°F2.9°C 78% 13.8 mph WSW22.2 kmh WSW 19.6 mph31.5 kmh 29.44 in997.0 mb 0.00 in0.0 mm 0.00 in/hr0.0 mm/hr 0.02 in0.5 mm
09:30 AM 42.2°F5.7°C 37.1°F2.8°C 82% 3.5 mph WNW5.6 kmh WNW 6.9 mph11.1 kmh 29.43 in996.6 mb 0.00 in0.0 mm 0.00 in/hr0.0 mm/hr 0.02 in0.5 mm
09:15 AM 42.7°F5.9°C 38.5°F3.6°C 85% 4.6 mph WSW7.4 kmh WSW 4.6 mph7.4 kmh 29.44 in997.0 mb 0.01 in0.3 mm 0.04 in/hr1.0 mm/hr 0.02 in0.5 mm
09:00 AM 43.3°F6.3°C 39.0°F3.9°C 85% 8.1 mph WSW13.0 kmh WSW 12.7 mph20.4 kmh 29.44 in997.0 mb 0.00 in0.0 mm 0.00 in/hr0.0 mm/hr 0.01 in0.3 mm
08:45 AM 42.8°F6.0°C 38.3°F3.5°C 84% 5.8 mph W9.3 kmh W 5.8 mph9.3 kmh 29.44 in997.0 mb 0.00 in0.0 mm 0.00 in/hr0.0 mm/hr 0.01 in0.3 mm
08:30 AM 43.4°F6.3°C 38.6°F3.7°C 83% 4.6 mph W7.4 kmh W 6.9 mph11.1 kmh 29.43 in996.6 mb 0.00 in0.0 mm 0.00 in/hr0.0 mm/hr 0.01 in0.3 mm
08:15 AM 43.6°F6.4°C 38.8°F3.8°C 83% 6.9 mph W11.1 kmh W 11.5 mph18.5 kmh 29.43 in996.6 mb 0.00 in0.0 mm 0.00 in/hr0.0 mm/hr 0.01 in0.3 mm
08:00 AM 43.4°F6.3°C 38.3°F3.5°C 82% 8.1 mph WSW13.0 kmh WSW 11.5 mph18.5 kmh 29.42 in996.3 mb 0.00 in0.0 mm 0.00 in/hr0.0 mm/hr 0.01 in0.3 mm
07:45 AM 43.3°F6.3°C 38.5°F3.6°C 83% 10.4 mph WSW16.7 kmh WSW 13.8 mph22.2 kmh 29.41 in995.9 mb 0.00 in0.0 mm 0.00 in/hr0.0 mm/hr 0.01 in0.3 mm
07:30 AM 43.7°F6.5°C 38.3°F3.5°C 81% 11.5 mph W18.5 kmh W 19.6 mph31.5 kmh 29.41 in995.9 mb 0.00 in0.0 mm 0.00 in/hr0.0 mm/hr 0.01 in0.3 mm
07:15 AM 43.8°F6.6°C 38.3°F3.5°C 81% 10.4 mph W16.7 kmh W 13.8 mph22.2 kmh 29.41 in995.9 mb 0.00 in0.0 mm 0.00 in/hr0.0 mm/hr 0.01 in0.3 mm
07:00 AM 44.2°F6.8°C 39.3°F4.1°C 83% 17.3 mph W27.8 kmh W 18.4 mph29.6 kmh 29.41 in995.9 mb 0.00 in0.0 mm 0.00 in/hr0.0 mm/hr 0.01 in0.3 mm
06:45 AM 44.0°F6.7°C 38.9°F3.8°C 82% 9.2 mph W14.8 kmh W 15.0 mph24.1 kmh 29.41 in995.9 mb 0.00 in0.0 mm 0.00 in/hr0.0 mm/hr 0.01 in0.3 mm
06:30 AM 44.5°F6.9°C 39.0°F3.9°C 81% 12.7 mph W20.4 kmh W 19.6 mph31.5 kmh 29.40 in995.6 mb 0.00 in0.0 mm 0.00 in/hr0.0 mm/hr 0.01 in0.3 mm
06:15 AM 44.1°F6.7°C 39.3°F4.1°C 83% 13.8 mph W22.2 kmh W 19.6 mph31.5 kmh 29.40 in995.6 mb 0.00 in0.0 mm 0.00 in/hr0.0 mm/hr 0.01 in0.3 mm
06:00 AM 44.9°F7.2°C 39.4°F4.1°C 81% 8.1 mph WNW13.0 kmh WNW 13.8 mph22.2 kmh 29.40 in995.6 mb 0.00 in0.0 mm 0.00 in/hr0.0 mm/hr 0.01 in0.3 mm
05:45 AM 45.2°F7.3°C 39.7°F4.3°C 81% 19.6 mph W31.5 kmh W 26.5 mph42.6 kmh 29.39 in995.3 mb 0.00 in0.0 mm 0.00 in/hr0.0 mm/hr 0.01 in0.3 mm
05:30 AM 45.3°F7.4°C 39.5°F4.2°C 80% 15.0 mph W24.1 kmh W 18.4 mph29.6 kmh 29.39 in995.3 mb 0.00 in0.0 mm 0.00 in/hr0.0 mm/hr 0.01 in0.3 mm
05:15 AM 45.4°F7.4°C 39.3°F4.1°C 79% 11.5 mph W18.5 kmh W 17.3 mph27.8 kmh 29.40 in995.6 mb 0.00 in0.0 mm 0.00 in/hr0.0 mm/hr 0.01 in0.3 mm
05:00 AM 46.0°F7.8°C 39.2°F4.0°C 77% 15.0 mph W24.1 kmh W 19.6 mph31.5 kmh 29.39 in995.3 mb 0.00 in0.0 mm 0.00 in/hr0.0 mm/hr 0.01 in0.3 mm
04:45 AM 46.4°F8.0°C 38.9°F3.8°C 75% 18.4 mph W29.6 kmh W 24.2 mph38.9 kmh 29.39 in995.3 mb 0.00 in0.0 mm 0.00 in/hr0.0 mm/hr 0.01 in0.3 mm
04:30 AM 45.8°F7.7°C 39.4°F4.1°C 78% 15.0 mph W24.1 kmh W 28.8 mph46.3 kmh 29.39 in995.3 mb 0.00 in0.0 mm 0.00 in/hr0.0 mm/hr 0.01 in0.3 mm
04:15 AM 45.4°F7.4°C 39.6°F4.2°C 80% 8.1 mph WSW13.0 kmh WSW 11.5 mph18.5 kmh 29.39 in995.3 mb 0.00 in0.0 mm 0.00 in/hr0.0 mm/hr 0.01 in0.3 mm
04:00 AM 45.8°F7.7°C 39.6°F4.2°C 79% 10.4 mph W16.7 kmh W 12.7 mph20.4 kmh 29.40 in995.6 mb 0.00 in0.0 mm 0.00 in/hr0.0 mm/hr 0.01 in0.3 mm
03:45 AM 46.3°F7.9°C 39.8°F4.3°C 78% 8.1 mph WSW13.0 kmh WSW 15.0 mph24.1 kmh 29.40 in995.6 mb 0.00 in0.0 mm 0.00 in/hr0.0 mm/hr 0.01 in0.3 mm
03:30 AM 46.7°F8.2°C 39.8°F4.3°C 77% 13.8 mph W22.2 kmh W 21.9 mph35.2 kmh 29.40 in995.6 mb 0.00 in0.0 mm 0.00 in/hr0.0 mm/hr 0.01 in0.3 mm
03:15 AM 45.7°F7.6°C 39.2°F4.0°C 78% 6.9 mph WSW11.1 kmh WSW 13.8 mph22.2 kmh 29.41 in995.9 mb 0.00 in0.0 mm 0.00 in/hr0.0 mm/hr 0.01 in0.3 mm
03:00 AM 45.8°F7.7°C 39.7°F4.3°C 79% 5.8 mph WSW9.3 kmh WSW 11.5 mph18.5 kmh 29.41 in995.9 mb 0.00 in0.0 mm 0.00 in/hr0.0 mm/hr 0.01 in0.3 mm
02:45 AM 45.9°F7.7°C 39.4°F4.1°C 78% 6.9 mph W11.1 kmh W 9.2 mph14.8 kmh 29.41 in995.9 mb 0.00 in0.0 mm 0.00 in/hr0.0 mm/hr 0.01 in0.3 mm
02:30 AM 46.2°F7.9°C 39.7°F4.3°C 78% 6.9 mph WSW11.1 kmh WSW 10.4 mph16.7 kmh 29.42 in996.3 mb 0.00 in0.0 mm 0.00 in/hr0.0 mm/hr 0.01 in0.3 mm
02:15 AM 46.0°F7.8°C 39.2°F4.0°C 77% 9.2 mph WSW14.8 kmh WSW 17.3 mph27.8 kmh 29.41 in995.9 mb 0.00 in0.0 mm 0.00 in/hr0.0 mm/hr 0.01 in0.3 mm
02:00 AM 45.8°F7.7°C 39.0°F3.9°C 77% 3.5 mph W5.6 kmh W 4.6 mph7.4 kmh 29.42 in996.3 mb 0.00 in0.0 mm 0.00 in/hr0.0 mm/hr 0.01 in0.3 mm
01:45 AM 46.2°F7.9°C 39.1°F3.9°C 76% 9.2 mph W14.8 kmh W 8.1 mph13.0 kmh 29.43 in996.6 mb 0.00 in0.0 mm 0.00 in/hr0.0 mm/hr 0.01 in0.3 mm
01:30 AM 46.8°F8.2°C 38.6°F3.7°C 73% 10.4 mph W16.7 kmh W 12.7 mph20.4 kmh 29.43 in996.6 mb 0.00 in0.0 mm 0.00 in/hr0.0 mm/hr 0.01 in0.3 mm
01:15 AM 47.7°F8.7°C 37.7°F3.2°C 68% 15.0 mph WSW24.1 kmh WSW 20.7 mph33.3 kmh 29.42 in996.3 mb 0.00 in0.0 mm 0.00 in/hr0.0 mm/hr 0.01 in0.3 mm
01:00 AM 48.0°F8.9°C 37.2°F2.9°C 66% 15.0 mph W24.1 kmh W 23.0 mph37.0 kmh 29.42 in996.3 mb 0.00 in0.0 mm 0.00 in/hr0.0 mm/hr 0.01 in0.3 mm
12:45 AM 48.2°F9.0°C 37.0°F2.8°C 65% 13.8 mph W22.2 kmh W 13.8 mph22.2 kmh 29.42 in996.3 mb 0.00 in0.0 mm 0.00 in/hr0.0 mm/hr 0.01 in0.3 mm
12:30 AM 48.0°F8.9°C 37.2°F2.9°C 66% 12.7 mph WSW20.4 kmh WSW 13.8 mph22.2 kmh 29.42 in996.3 mb 0.00 in0.0 mm 0.00 in/hr0.0 mm/hr 0.01 in0.3 mm
12:15 AM 47.7°F8.7°C 38.4°F3.6°C 70% 9.2 mph WSW14.8 kmh WSW 11.5 mph18.5 kmh 29.43 in996.6 mb 0.01 in0.3 mm 0.04 in/hr1.0 mm/hr 0.01 in0.3 mm
12:00 AM 47.7°F8.7°C 38.8°F3.8°C 71% 13.8 mph W22.2 kmh W 19.6 mph31.5 kmh 29.43 in996.6 mb 0.00 in0.0 mm 0.00 in/hr0.0 mm/hr 0.00 in0.0 mm